createdAt,value
2018-01-21T00:00:26.207Z,125.20
2018-01-21T00:01:30.469Z,132.23
2018-01-21T00:02:34.715Z,111.35
2018-01-21T00:03:38.943Z,95.97
2018-01-21T00:04:43.152Z,125.40
2018-01-21T00:05:47.383Z,129.55
2018-01-21T00:06:51.597Z,133.10
2018-01-21T00:07:55.961Z,133.90
2018-01-21T00:09:00.237Z,125.90
2018-01-21T00:10:04.466Z,126.80
2018-01-21T00:11:09.425Z,121.97
2018-01-21T00:12:13.621Z,117.65
2018-01-21T00:13:17.826Z,117.63
2018-01-21T00:14:22.128Z,136.65
2018-01-21T00:15:26.344Z,130.82
2018-01-21T00:16:30.569Z,128.90
2018-01-21T00:17:34.863Z,142.05
2018-01-21T00:18:39.052Z,133.17
2018-01-21T00:19:43.290Z,162.00
2018-01-21T00:20:47.488Z,133.07
2018-01-21T00:21:52.422Z,129.03
2018-01-21T00:22:57.364Z,127.10
2018-01-21T00:24:01.572Z,136.85
2018-01-21T00:25:05.825Z,114.43
2018-01-21T00:26:10.039Z,129.53
2018-01-21T00:27:14.222Z,129.73
2018-01-21T00:28:18.400Z,124.05
2018-01-21T00:29:23.538Z,127.70
2018-01-21T00:30:27.795Z,141.93
2018-01-21T00:31:32.019Z,139.60
2018-01-21T00:32:36.254Z,158.12
2018-01-21T00:33:40.474Z,154.50
2018-01-21T00:34:45.464Z,168.05
2018-01-21T00:35:49.798Z,139.90
2018-01-21T00:36:54.138Z,169.73
2018-01-21T00:37:58.369Z,156.43
2018-01-21T00:39:02.608Z,156.27
2018-01-21T00:40:06.976Z,148.90
2018-01-21T00:41:11.297Z,152.33
2018-01-21T00:42:15.505Z,132.73
2018-01-21T00:43:19.695Z,153.98
2018-01-21T00:44:23.901Z,135.57
2018-01-21T00:45:28.884Z,139.60
2018-01-21T00:46:33.091Z,149.02
2018-01-21T00:47:37.334Z,158.35
2018-01-21T00:48:41.578Z,144.02
2018-01-21T00:49:46.618Z,172.03
2018-01-21T00:50:50.834Z,127.93
2018-01-21T00:51:55.060Z,120.70
2018-01-21T00:52:59.349Z,131.80
2018-01-21T00:54:03.540Z,151.37
2018-01-21T00:55:08.478Z,148.35
2018-01-21T00:56:12.671Z,147.27
2018-01-21T00:57:16.884Z,158.48
2018-01-21T00:58:21.884Z,144.45
2018-01-21T00:59:26.075Z,122.35
2018-01-21T01:00:30.267Z,129.63
2018-01-21T01:01:34.485Z,144.52
2018-01-21T01:02:38.686Z,157.57
2018-01-21T01:03:42.926Z,147.27
2018-01-21T01:04:47.153Z,132.73
2018-01-21T01:05:51.349Z,137.77
2018-01-21T01:06:55.633Z,139.95
2018-01-21T01:07:59.850Z,116.28
2018-01-21T01:09:04.153Z,112.10
2018-01-21T01:10:08.363Z,125.05
2018-01-21T01:11:12.544Z,119.40
2018-01-21T01:12:17.486Z,113.10
2018-01-21T01:13:22.477Z,120.10
2018-01-21T01:14:27.073Z,128.30
2018-01-21T01:15:31.361Z,127.25
2018-01-21T01:16:35.547Z,123.75
2018-01-21T01:17:40.499Z,141.10
2018-01-21T01:18:44.685Z,139.18
2018-01-21T01:19:49.718Z,135.65
2018-01-21T01:20:54.721Z,106.82
2018-01-21T01:21:58.907Z,106.63
2018-01-21T01:23:03.107Z,99.85
2018-01-21T01:24:07.298Z,121.40
2018-01-21T01:25:11.608Z,103.00
2018-01-21T01:26:15.930Z,101.12
2018-01-21T01:27:20.197Z,88.15
2018-01-21T01:28:24.422Z,110.70
2018-01-21T01:29:29.388Z,95.45
2018-01-21T01:30:33.630Z,111.82
2018-01-21T01:31:37.895Z,98.62
2018-01-21T01:32:42.182Z,76.75
2018-01-21T01:33:47.132Z,86.30
2018-01-21T01:34:52.109Z,87.85
2018-01-21T01:35:56.382Z,87.10
2018-01-21T01:37:00.593Z,76.80
2018-01-21T01:38:04.826Z,71.32
2018-01-21T01:39:09.058Z,76.37
2018-01-21T01:40:13.235Z,74.50
2018-01-21T01:41:17.448Z,68.20
2018-01-21T01:42:21.684Z,83.18
2018-01-21T01:43:26.066Z,72.37
2018-01-21T01:44:30.289Z,74.30
2018-01-21T01:45:34.480Z,76.32
2018-01-21T01:46:38.698Z,72.18
2018-01-21T01:47:42.977Z,82.32
2018-01-21T01:48:55.892Z,74.30
2018-01-21T01:50:00.873Z,72.68
2018-01-21T01:51:05.047Z,71.72
2018-01-21T01:52:10.026Z,70.80
2018-01-21T01:53:14.305Z,69.18
2018-01-21T01:54:18.527Z,64.27
2018-01-21T01:55:22.745Z,67.37
2018-01-21T01:56:26.923Z,58.05
2018-01-21T01:57:31.143Z,74.60
2018-01-21T01:58:35.380Z,66.25
2018-01-21T01:59:39.564Z,49.85
2018-01-21T02:00:43.879Z,59.85
2018-01-21T02:01:48.441Z,45.42
2018-01-21T02:02:52.663Z,50.67
2018-01-21T02:03:56.937Z,59.40
2018-01-21T02:05:01.201Z,55.08
2018-01-21T02:06:06.190Z,43.50
2018-01-21T02:07:10.374Z,48.85
2018-01-21T02:08:14.576Z,51.97
2018-01-21T02:09:19.167Z,46.13
2018-01-21T02:10:24.199Z,46.35
2018-01-21T02:11:29.151Z,39.72
2018-01-21T02:12:33.364Z,36.58
2018-01-21T02:13:37.568Z,33.00
2018-01-21T02:14:41.795Z,32.38
2018-01-21T02:15:46.013Z,45.28
2018-01-21T02:16:50.190Z,40.95
2018-01-21T02:17:55.160Z,25.12
2018-01-21T02:18:59.373Z,29.80
2018-01-21T02:20:03.672Z,32.47
2018-01-21T02:21:07.922Z,33.63
2018-01-21T02:22:12.243Z,32.50
2018-01-21T02:23:17.964Z,35.22
2018-01-21T02:24:22.183Z,38.42
2018-01-21T02:25:26.453Z,40.78
2018-01-21T02:26:30.623Z,30.50
2018-01-21T02:27:34.827Z,32.17
2018-01-21T02:28:39.045Z,33.67
2018-01-21T02:29:43.277Z,37.55
2018-01-21T02:30:48.309Z,43.87
2018-01-21T02:31:53.300Z,39.03
2018-01-21T02:32:57.512Z,50.12
2018-01-21T02:34:01.729Z,40.25
2018-01-21T02:35:05.906Z,38.63
2018-01-21T02:36:10.137Z,44.03
2018-01-21T02:37:14.350Z,42.28
2018-01-21T02:38:18.531Z,42.53
2018-01-21T02:39:22.752Z,58.58
2018-01-21T02:40:26.959Z,49.80
2018-01-21T02:41:31.216Z,58.13
2018-01-21T02:42:35.433Z,56.00
2018-01-21T02:43:40.413Z,50.15
2018-01-21T02:44:44.599Z,62.28
2018-01-21T02:45:48.855Z,50.55
2018-01-21T02:46:53.164Z,55.33
2018-01-21T02:47:57.347Z,62.08
2018-01-21T02:49:01.553Z,62.42
2018-01-21T02:50:05.736Z,70.10
2018-01-21T02:51:10.689Z,62.85
2018-01-21T02:52:14.908Z,61.00
2018-01-21T02:53:19.222Z,59.70
2018-01-21T02:54:23.409Z,68.18
2018-01-21T02:55:28.385Z,77.15
2018-01-21T02:56:32.610Z,76.50
2018-01-21T02:57:37.628Z,78.95
2018-01-21T02:58:42.567Z,69.03
2018-01-21T02:59:46.773Z,82.12
2018-01-21T03:00:51.017Z,102.47
2018-01-21T03:01:56.043Z,89.47
2018-01-21T03:03:01.069Z,85.90
2018-01-21T03:04:06.123Z,82.57
2018-01-21T03:05:10.337Z,87.55
2018-01-21T03:06:14.515Z,82.45
2018-01-21T03:07:18.767Z,86.20
2018-01-21T03:08:23.384Z,86.75
2018-01-21T03:09:27.554Z,96.03
2018-01-21T03:10:31.812Z,96.65
2018-01-21T03:11:36.113Z,89.00
2018-01-21T03:12:40.302Z,89.78
2018-01-21T03:13:45.330Z,72.30
2018-01-21T03:14:50.284Z,77.72
2018-01-21T03:15:54.516Z,65.90
2018-01-21T03:16:58.737Z,75.45
2018-01-21T03:18:02.948Z,86.93
2018-01-21T03:19:07.190Z,78.93
2018-01-21T03:20:11.418Z,83.68
2018-01-21T03:21:16.418Z,75.40
2018-01-21T03:22:20.632Z,76.20
2018-01-21T03:23:24.915Z,86.47
2018-01-21T03:24:29.500Z,80.40
2018-01-21T03:25:34.434Z,62.17
2018-01-21T03:26:38.652Z,63.45
2018-01-21T03:27:42.870Z,77.95
2018-01-21T03:28:47.089Z,69.78
2018-01-21T03:29:51.314Z,84.20
2018-01-21T03:30:55.546Z,76.12
2018-01-21T03:31:59.736Z,87.05
2018-01-21T03:33:03.954Z,66.00
2018-01-21T03:34:08.141Z,77.90
2018-01-21T03:35:12.380Z,68.60
2018-01-21T03:36:16.595Z,62.25
2018-01-21T03:37:20.813Z,70.85
2018-01-21T03:38:25.007Z,60.80
2018-01-21T03:39:29.221Z,80.50
2018-01-21T03:40:33.441Z,56.22
2018-01-21T03:41:37.696Z,59.60
2018-01-21T03:42:42.245Z,63.45
2018-01-21T03:43:46.464Z,65.85
2018-01-21T03:44:50.630Z,62.42
2018-01-21T03:45:54.861Z,65.50
2018-01-21T03:46:59.083Z,66.62
2018-01-21T03:48:03.320Z,61.45
2018-01-21T03:49:07.504Z,66.70
2018-01-21T03:50:11.732Z,67.95
2018-01-21T03:51:15.948Z,57.10
2018-01-21T03:52:20.135Z,65.22
2018-01-21T03:53:24.723Z,73.18
2018-01-21T03:54:29.724Z,72.35
2018-01-21T03:55:33.895Z,71.15
2018-01-21T03:56:38.077Z,67.75
2018-01-21T03:57:42.291Z,65.20
2018-01-21T03:58:46.832Z,65.97
2018-01-21T03:59:51.087Z,61.83
2018-01-21T04:00:55.343Z,59.85
2018-01-21T04:01:59.515Z,60.58
2018-01-21T04:03:03.729Z,57.33
2018-01-21T04:04:08.754Z,67.43
2018-01-21T04:05:13.735Z,53.87
2018-01-21T04:06:18.005Z,62.42
2018-01-21T04:07:22.987Z,67.70
2018-01-21T04:08:27.220Z,66.45
2018-01-21T04:09:31.892Z,63.10
2018-01-21T04:10:36.085Z,55.47
2018-01-21T04:11:41.107Z,76.00
2018-01-21T04:12:46.055Z,55.60
2018-01-21T04:13:50.222Z,67.50
2018-01-21T04:14:54.489Z,66.03
2018-01-21T04:15:58.672Z,79.47
2018-01-21T04:17:03.724Z,74.80
2018-01-21T04:18:07.916Z,85.15
2018-01-21T04:19:12.888Z,72.15
2018-01-21T04:20:17.172Z,81.18
2018-01-21T04:21:21.366Z,67.47
2018-01-21T04:22:26.341Z,86.28
2018-01-21T04:23:30.640Z,74.45
2018-01-21T04:24:34.857Z,80.43
2018-01-21T04:25:39.131Z,60.80
2018-01-21T04:26:43.351Z,82.43
2018-01-21T04:27:47.518Z,70.57
2018-01-21T04:28:51.790Z,70.85
2018-01-21T04:29:56.040Z,64.37
2018-01-21T04:31:00.214Z,67.15
2018-01-21T04:32:04.487Z,68.87
2018-01-21T04:33:09.474Z,62.43
2018-01-21T04:34:13.791Z,52.55
2018-01-21T04:35:18.739Z,52.58
2018-01-21T04:36:22.921Z,48.20
2018-01-21T04:37:27.206Z,50.10
2018-01-21T04:38:31.438Z,49.55
2018-01-21T04:39:35.672Z,52.83
2018-01-21T04:40:39.851Z,61.03
2018-01-21T04:41:44.061Z,55.05
2018-01-21T04:42:48.281Z,48.22
2018-01-21T04:43:52.463Z,57.47
2018-01-21T04:44:56.686Z,49.42
2018-01-21T04:46:00.972Z,55.88
2018-01-21T04:47:05.961Z,53.15
2018-01-21T04:48:10.142Z,64.60
2018-01-21T04:49:14.319Z,58.05
2018-01-21T04:50:19.324Z,57.33
2018-01-21T04:51:23.504Z,60.75
2018-01-21T04:52:27.725Z,65.97
2018-01-21T04:53:31.997Z,52.22
2018-01-21T04:54:36.219Z,54.13
2018-01-21T04:55:40.432Z,68.40
2018-01-21T04:56:44.674Z,57.40
2018-01-21T04:57:49.040Z,67.50
2018-01-21T04:58:53.225Z,68.80
2018-01-21T04:59:57.395Z,60.65
2018-01-21T05:01:01.623Z,57.05
2018-01-21T05:02:05.846Z,59.47
2018-01-21T05:03:10.036Z,58.45
2018-01-21T05:04:14.203Z,56.70
2018-01-21T05:05:18.378Z,51.75
2018-01-21T05:06:23.008Z,57.58
2018-01-21T05:07:27.994Z,53.95
2018-01-21T05:08:32.225Z,54.35
2018-01-21T05:09:36.416Z,53.92
2018-01-21T05:10:40.621Z,51.22
2018-01-21T05:11:44.892Z,51.35
2018-01-21T05:12:49.831Z,51.20
2018-01-21T05:13:54.008Z,52.97
2018-01-21T05:14:58.196Z,45.72
2018-01-21T05:16:02.404Z,54.17
2018-01-21T05:17:06.679Z,43.08
2018-01-21T05:18:10.851Z,57.17
2018-01-21T05:19:15.031Z,49.03
2018-01-21T05:20:19.249Z,46.10
2018-01-21T05:21:23.468Z,41.45
2018-01-21T05:22:27.721Z,36.28
2018-01-21T05:23:32.660Z,42.72
2018-01-21T05:24:36.912Z,40.63
2018-01-21T05:25:41.155Z,39.38
2018-01-21T05:26:46.146Z,35.55
2018-01-21T05:27:50.394Z,39.28
2018-01-21T05:28:54.647Z,46.28
2018-01-21T05:29:58.827Z,37.85
2018-01-21T05:31:04.214Z,47.38
2018-01-21T05:32:08.420Z,39.03
2018-01-21T05:33:12.629Z,34.22
2018-01-21T05:34:16.806Z,47.25
2018-01-21T05:35:21.033Z,36.63
2018-01-21T05:36:25.236Z,34.08
2018-01-21T05:37:29.539Z,30.77
2018-01-21T05:38:34.519Z,41.78
2018-01-21T05:39:38.699Z,34.13
2018-01-21T05:40:42.981Z,35.50
2018-01-21T05:41:47.932Z,35.80
2018-01-21T05:42:52.244Z,32.92
2018-01-21T05:43:56.424Z,35.10
2018-01-21T05:45:00.613Z,35.65
2018-01-21T05:46:04.793Z,26.20
2018-01-21T05:47:09.009Z,27.50
2018-01-21T05:48:13.568Z,38.13
2018-01-21T05:49:17.824Z,23.27
2018-01-21T05:50:22.128Z,24.92
2018-01-21T05:51:26.328Z,23.65
2018-01-21T05:52:31.259Z,26.10
2018-01-21T05:53:35.766Z,23.62
2018-01-21T05:54:40.757Z,23.45
2018-01-21T05:55:44.942Z,31.50
2018-01-21T05:56:49.158Z,28.80
2018-01-21T05:57:53.326Z,21.00
2018-01-21T05:58:58.684Z,27.55
2018-01-21T06:00:02.978Z,23.17
2018-01-21T06:01:07.911Z,19.58
2018-01-21T06:02:12.189Z,26.48
2018-01-21T06:03:16.359Z,21.83
2018-01-21T06:04:20.582Z,16.95
2018-01-21T06:05:24.806Z,18.58
2018-01-21T06:06:29.051Z,16.58
2018-01-21T06:07:34.064Z,25.50
2018-01-21T06:08:38.283Z,24.25
2018-01-21T06:09:42.506Z,18.67
2018-01-21T06:10:47.513Z,21.55
2018-01-21T06:11:51.741Z,21.35
2018-01-21T06:12:55.945Z,15.55
2018-01-21T06:14:00.952Z,21.50
2018-01-21T06:15:05.213Z,24.20
2018-01-21T06:16:09.391Z,29.20
2018-01-21T06:17:13.593Z,22.05
2018-01-21T06:18:17.787Z,21.70
2018-01-21T06:19:22.063Z,21.42
2018-01-21T06:20:26.265Z,15.40
2018-01-21T06:21:30.591Z,26.00
2018-01-21T06:22:34.810Z,27.73
2018-01-21T06:23:39.114Z,22.58
2018-01-21T06:24:43.375Z,21.12
2018-01-21T06:25:47.588Z,22.20
2018-01-21T06:26:51.793Z,19.20
2018-01-21T06:27:56.009Z,30.65
2018-01-21T06:29:00.222Z,24.30
2018-01-21T06:30:04.419Z,23.65
2018-01-21T06:31:08.586Z,16.62
2018-01-21T06:32:12.804Z,22.27
2018-01-21T06:33:17.014Z,25.27
2018-01-21T06:34:21.253Z,19.58
2018-01-21T06:35:25.434Z,20.75
2018-01-21T06:36:29.650Z,26.05
2018-01-21T06:37:34.226Z,18.15
2018-01-21T06:38:39.205Z,16.08
2018-01-21T06:39:43.418Z,16.75
2018-01-21T06:40:47.591Z,18.40
2018-01-21T06:41:52.540Z,20.02
2018-01-21T06:42:56.805Z,19.60
2018-01-21T06:44:01.038Z,13.15
2018-01-21T06:45:06.016Z,17.55
2018-01-21T06:46:10.237Z,17.02
2018-01-21T06:47:14.424Z,15.43
2018-01-21T06:48:18.643Z,14.63
2018-01-21T06:49:22.854Z,15.02
2018-01-21T06:50:27.147Z,13.75
2018-01-21T06:51:31.381Z,16.98
2018-01-21T06:52:35.653Z,18.80
2018-01-21T06:53:40.647Z,24.10
2018-01-21T06:54:44.828Z,18.48
2018-01-21T06:55:49.037Z,12.32
2018-01-21T06:56:53.250Z,19.65
2018-01-21T06:57:57.645Z,15.18
2018-01-21T06:59:01.863Z,19.25
2018-01-21T07:00:06.094Z,14.00
2018-01-21T07:01:10.310Z,12.45
2018-01-21T07:02:14.533Z,17.25
2018-01-21T07:03:18.711Z,19.25
2018-01-21T07:04:22.947Z,14.68
2018-01-21T07:05:27.166Z,14.20
2018-01-21T07:06:31.386Z,15.98
2018-01-21T07:07:35.597Z,17.83
2018-01-21T07:08:39.866Z,13.15
2018-01-21T07:09:44.061Z,13.88
2018-01-21T07:10:48.235Z,14.52
2018-01-21T07:11:52.573Z,22.15
2018-01-21T07:12:57.548Z,19.48
2018-01-21T07:14:01.772Z,14.00
2018-01-21T07:15:05.985Z,15.93
2018-01-21T07:16:10.156Z,15.45
2018-01-21T07:17:14.460Z,15.82
2018-01-21T07:18:18.880Z,18.60
2018-01-21T07:19:23.145Z,19.58
2018-01-21T07:20:27.332Z,10.48
2018-01-21T07:21:31.527Z,13.73
2018-01-21T07:22:35.729Z,8.85
2018-01-21T07:23:39.941Z,11.25
2018-01-21T07:24:44.202Z,27.05
2018-01-21T07:25:48.389Z,18.33
2018-01-21T07:26:52.593Z,13.65
2018-01-21T07:27:56.819Z,16.95
2018-01-21T07:29:01.005Z,10.05
2018-01-21T07:30:05.281Z,14.25
2018-01-21T07:31:09.462Z,12.40
2018-01-21T07:32:13.820Z,16.02
2018-01-21T07:33:18.038Z,10.18
2018-01-21T07:34:22.297Z,13.05
2018-01-21T07:35:26.492Z,16.58
2018-01-21T07:36:30.677Z,14.38
2018-01-21T07:37:34.885Z,13.18
2018-01-21T07:38:39.088Z,7.22
2018-01-21T07:39:43.297Z,8.00
2018-01-21T07:40:47.532Z,11.05
2018-01-21T07:41:51.703Z,19.87
2018-01-21T07:42:56.686Z,12.55
2018-01-21T07:44:00.864Z,6.57
2018-01-21T07:45:05.168Z,10.85
2018-01-21T07:46:09.581Z,10.55
2018-01-21T07:47:13.835Z,10.65
2018-01-21T07:48:19.532Z,15.52
2018-01-21T07:49:23.705Z,7.75
2018-01-21T07:50:27.967Z,12.60
2018-01-21T07:51:32.601Z,9.57
2018-01-21T07:52:36.780Z,15.25
2018-01-21T07:53:41.082Z,8.55
2018-01-21T07:54:46.037Z,11.32
2018-01-21T07:55:50.241Z,10.37
2018-01-21T07:56:54.483Z,14.93
2018-01-21T07:57:58.663Z,7.75
2018-01-21T07:59:02.876Z,14.50
2018-01-21T08:00:07.056Z,14.32
2018-01-21T08:01:11.987Z,19.60
2018-01-21T08:02:16.980Z,19.55
2018-01-21T08:03:21.157Z,11.52
2018-01-21T08:04:25.369Z,7.68
2018-01-21T08:05:29.585Z,13.30
2018-01-21T08:06:33.760Z,13.23
2018-01-21T08:07:38.969Z,17.15
2018-01-21T08:08:43.288Z,14.07
2018-01-21T08:09:47.560Z,7.70
2018-01-21T08:10:51.757Z,12.52
2018-01-21T08:11:55.938Z,11.38
2018-01-21T08:13:00.926Z,11.82
2018-01-21T08:14:05.203Z,5.40
2018-01-21T08:15:09.437Z,16.48
2018-01-21T08:16:13.606Z,12.13
2018-01-21T08:17:18.589Z,9.30
2018-01-21T08:18:22.768Z,15.45
2018-01-21T08:19:27.065Z,20.23
2018-01-21T08:20:32.092Z,8.38
2018-01-21T08:21:36.305Z,17.30
2018-01-21T08:22:40.487Z,7.22
2018-01-21T08:23:44.689Z,12.45
2018-01-21T08:24:48.924Z,9.00
2018-01-21T08:25:53.963Z,20.67
2018-01-21T08:26:58.139Z,17.37
2018-01-21T08:28:02.336Z,18.90
2018-01-21T08:29:06.516Z,10.57
2018-01-21T08:30:11.129Z,12.43
2018-01-21T08:31:15.334Z,16.17
2018-01-21T08:32:19.537Z,15.52
2018-01-21T08:33:23.719Z,17.42
2018-01-21T08:34:33.570Z,9.80
2018-01-21T08:35:44.201Z,10.13
2018-01-21T08:36:53.981Z,9.43
2018-01-21T08:38:04.524Z,7.57
2018-01-21T08:39:14.343Z,6.40
2018-01-21T08:40:23.988Z,5.00
2018-01-21T08:41:31.846Z,6.62
2018-01-21T08:42:37.435Z,13.62
2018-01-21T08:43:41.643Z,10.93
2018-01-21T08:44:45.853Z,5.72
2018-01-21T08:45:50.069Z,8.77
2018-01-21T08:46:54.333Z,6.12
2018-01-21T08:47:58.515Z,6.10
2018-01-21T08:49:03.573Z,7.90
2018-01-21T08:50:07.743Z,5.47
2018-01-21T08:51:11.941Z,7.47
2018-01-21T08:52:16.142Z,12.03
2018-01-21T08:53:20.536Z,4.77
2018-01-21T08:54:24.716Z,8.05
2018-01-21T08:55:29.659Z,3.72
2018-01-21T08:56:33.893Z,9.37
2018-01-21T08:57:38.069Z,8.47
2018-01-21T08:58:42.386Z,13.05
2018-01-21T08:59:46.577Z,6.18
2018-01-21T09:00:51.512Z,6.30
2018-01-21T09:01:56.456Z,8.88
2018-01-21T09:03:00.670Z,4.75
2018-01-21T09:04:05.437Z,14.00
2018-01-21T09:05:09.740Z,6.28
2018-01-21T09:06:13.985Z,10.25
2018-01-21T09:07:18.961Z,8.82
2018-01-21T09:08:23.177Z,9.32
2018-01-21T09:09:27.448Z,13.02
2018-01-21T09:10:31.705Z,9.10
2018-01-21T09:11:35.871Z,15.02
2018-01-21T09:12:40.917Z,7.28
2018-01-21T09:13:45.129Z,13.07
2018-01-21T09:14:49.528Z,8.10
2018-01-21T09:15:53.858Z,7.15
2018-01-21T09:16:58.077Z,18.08
2018-01-21T09:18:02.273Z,8.98
2018-01-21T09:19:06.495Z,7.97
2018-01-21T09:20:10.761Z,10.43
2018-01-21T09:21:14.935Z,8.95
2018-01-21T09:22:19.113Z,12.60
2018-01-21T09:23:23.328Z,15.80
2018-01-21T09:24:27.542Z,5.82
2018-01-21T09:25:31.763Z,9.88
2018-01-21T09:26:35.945Z,11.52
2018-01-21T09:27:40.914Z,9.13
2018-01-21T09:28:45.145Z,7.87
2018-01-21T09:29:50.840Z,3.25
2018-01-21T09:30:55.405Z,11.35
2018-01-21T09:31:59.579Z,5.70
2018-01-21T09:33:03.891Z,16.87
2018-01-21T09:34:08.089Z,5.22
2018-01-21T09:35:13.061Z,6.80
2018-01-21T09:36:17.312Z,10.60
2018-01-21T09:37:22.285Z,7.10
2018-01-21T09:38:26.477Z,10.80
2018-01-21T09:39:30.681Z,12.68
2018-01-21T09:40:34.889Z,4.60
2018-01-21T09:41:39.129Z,17.70
2018-01-21T09:42:43.346Z,7.43
2018-01-21T09:43:47.570Z,12.60
2018-01-21T09:44:52.153Z,9.35
2018-01-21T09:45:56.336Z,12.07
2018-01-21T09:47:01.317Z,10.35
2018-01-21T09:48:05.520Z,9.60
2018-01-21T09:49:09.700Z,6.90
2018-01-21T09:50:13.927Z,8.15
2018-01-21T09:51:18.125Z,7.00
2018-01-21T09:52:22.340Z,3.27
2018-01-21T09:53:26.591Z,9.50
2018-01-21T09:54:30.834Z,13.23
2018-01-21T09:55:35.843Z,11.93
2018-01-21T09:56:40.015Z,5.28
2018-01-21T09:57:44.212Z,6.45
2018-01-21T09:58:48.416Z,4.37
2018-01-21T09:59:52.633Z,7.25
2018-01-21T10:00:57.258Z,7.65
2018-01-21T10:02:01.465Z,6.80
2018-01-21T10:03:05.663Z,5.55
2018-01-21T10:04:09.886Z,9.77
2018-01-21T10:05:14.166Z,8.43
2018-01-21T10:06:19.644Z,5.60
2018-01-21T10:07:23.884Z,5.18
2018-01-21T10:08:28.064Z,10.77
2018-01-21T10:09:32.277Z,10.13
2018-01-21T10:10:36.545Z,7.70
2018-01-21T10:11:40.801Z,8.43
2018-01-21T10:12:44.971Z,7.10
2018-01-21T10:13:49.271Z,3.35
2018-01-21T10:14:53.528Z,11.85
2018-01-21T10:15:57.728Z,4.37
2018-01-21T10:17:02.723Z,8.48
2018-01-21T10:18:06.925Z,11.32
2018-01-21T10:19:11.149Z,5.72
2018-01-21T10:20:15.407Z,5.07
2018-01-21T10:21:19.630Z,6.85
2018-01-21T10:22:23.846Z,8.52
2018-01-21T10:23:28.052Z,10.68
2018-01-21T10:24:32.274Z,14.60
2018-01-21T10:25:36.462Z,6.75
2018-01-21T10:26:40.678Z,8.03
2018-01-21T10:27:44.977Z,8.30
2018-01-21T10:28:49.156Z,11.30
2018-01-21T10:29:53.379Z,7.23
2018-01-21T10:30:58.407Z,6.22
2018-01-21T10:32:03.414Z,11.45
2018-01-21T10:33:08.027Z,9.88
2018-01-21T10:34:12.211Z,3.80
2018-01-21T10:35:16.429Z,5.17
2018-01-21T10:36:20.638Z,6.03
2018-01-21T10:37:24.917Z,7.15
2018-01-21T10:38:29.902Z,13.00
2018-01-21T10:39:34.123Z,3.15
2018-01-21T10:40:38.330Z,6.20
2018-01-21T10:41:42.600Z,5.73
2018-01-21T10:42:46.773Z,10.50
2018-01-21T10:43:51.014Z,4.28
2018-01-21T10:44:55.190Z,11.73
2018-01-21T10:46:00.185Z,4.20
2018-01-21T10:47:04.367Z,6.43
2018-01-21T10:48:08.548Z,8.60
2018-01-21T10:49:12.877Z,6.23
2018-01-21T10:50:17.102Z,6.55
2018-01-21T10:51:21.283Z,5.60
2018-01-21T10:52:26.253Z,7.00
2018-01-21T10:53:30.453Z,2.50
2018-01-21T10:54:34.736Z,2.90
2018-01-21T10:55:39.741Z,5.83
2018-01-21T10:56:43.977Z,2.30
2018-01-21T10:57:48.194Z,6.50
2018-01-21T10:58:52.385Z,5.72
2018-01-21T10:59:56.609Z,6.70
2018-01-21T11:01:02.467Z,4.43
2018-01-21T11:02:06.675Z,8.50
2018-01-21T11:03:10.889Z,2.95
2018-01-21T11:04:15.206Z,8.98
2018-01-21T11:05:19.416Z,4.75
2018-01-21T11:06:23.635Z,3.83
2018-01-21T11:07:27.841Z,7.57
2018-01-21T11:08:32.049Z,2.83
2018-01-21T11:09:36.339Z,5.40
2018-01-21T11:10:41.388Z,7.37
2018-01-21T11:11:45.598Z,3.17
2018-01-21T11:12:49.826Z,10.50
2018-01-21T11:13:54.107Z,5.83
2018-01-21T11:14:59.097Z,4.70
2018-01-21T11:16:03.267Z,3.63
2018-01-21T11:17:07.432Z,7.23
2018-01-21T11:18:11.646Z,5.13
2018-01-21T11:19:17.366Z,6.63
2018-01-21T11:20:21.597Z,4.63
2018-01-21T11:21:25.772Z,5.97
2018-01-21T11:22:29.930Z,6.20
2018-01-21T11:23:34.115Z,3.07
2018-01-21T11:24:38.344Z,5.90
2018-01-21T11:25:42.558Z,6.33
2018-01-21T11:26:46.756Z,6.70
2018-01-21T11:27:50.920Z,6.57
2018-01-21T11:28:55.178Z,4.45
2018-01-21T11:29:59.352Z,4.40
2018-01-21T11:31:03.615Z,3.97
2018-01-21T11:32:07.826Z,4.00
2018-01-21T11:33:12.811Z,9.90
2018-01-21T11:34:17.060Z,6.33
2018-01-21T11:35:21.236Z,7.93
2018-01-21T11:36:25.920Z,7.67
2018-01-21T11:37:30.148Z,6.23
2018-01-21T11:38:34.333Z,5.27
2018-01-21T11:39:38.617Z,11.07
2018-01-21T11:40:42.833Z,9.23
2018-01-21T11:41:47.137Z,3.80
2018-01-21T11:42:51.349Z,6.40
2018-01-21T11:43:56.331Z,3.73
2018-01-21T11:45:00.636Z,8.63
2018-01-21T11:46:04.889Z,13.77
2018-01-21T11:47:10.800Z,4.40
2018-01-21T11:48:13.335Z,7.53
2018-01-21T11:49:18.310Z,8.13
2018-01-21T11:50:22.567Z,3.73
2018-01-21T11:51:27.561Z,6.73
2018-01-21T11:52:32.085Z,5.37
2018-01-21T11:53:36.265Z,3.60
2018-01-21T11:54:40.457Z,5.23
2018-01-21T11:55:45.398Z,7.67
2018-01-21T11:56:49.598Z,5.53
2018-01-21T11:57:53.817Z,1.30
2018-01-21T11:58:58.889Z,9.93
2018-01-21T12:00:03.107Z,9.77
2018-01-21T12:01:08.055Z,2.70
2018-01-21T12:02:12.258Z,4.03
2018-01-21T12:03:16.488Z,6.73
2018-01-21T12:04:20.690Z,3.90
2018-01-21T12:05:26.467Z,9.50
2018-01-21T12:06:30.634Z,4.28
2018-01-21T12:07:34.858Z,4.03
2018-01-21T12:08:39.155Z,5.50
2018-01-21T12:09:43.370Z,4.10
2018-01-21T12:10:47.535Z,3.53
2018-01-21T12:11:51.742Z,5.80
2018-01-21T12:12:55.965Z,4.70
2018-01-21T12:14:00.204Z,4.00
2018-01-21T12:15:05.887Z,7.43
2018-01-21T12:16:10.140Z,7.82
2018-01-21T12:17:14.382Z,2.57
2018-01-21T12:18:18.540Z,8.73
2018-01-21T12:19:22.803Z,1.43
2018-01-21T12:20:27.073Z,7.83
2018-01-21T12:21:31.260Z,18.63
2018-01-21T12:22:35.474Z,4.00
2018-01-21T12:23:39.683Z,1.97
2018-01-21T12:24:43.871Z,5.93
2018-01-21T12:25:48.079Z,3.80
2018-01-21T12:26:52.296Z,2.80
2018-01-21T12:27:56.463Z,1.77
2018-01-21T12:29:00.665Z,3.93
2018-01-21T12:30:04.955Z,3.90
2018-01-21T12:31:09.146Z,6.10
2018-01-21T12:32:14.156Z,10.20
2018-01-21T12:33:18.499Z,3.93
2018-01-21T12:34:22.722Z,2.00
2018-01-21T12:35:26.925Z,4.90
2018-01-21T12:36:31.100Z,4.10
2018-01-21T12:37:35.455Z,3.77
2018-01-21T12:38:39.852Z,3.40
2018-01-21T12:39:44.870Z,6.43
2018-01-21T12:40:49.033Z,2.87
2018-01-21T12:41:53.233Z,4.53
2018-01-21T12:42:57.533Z,3.97
2018-01-21T12:44:02.045Z,1.80
2018-01-21T12:45:06.282Z,5.30
2018-01-21T12:46:10.472Z,4.45
2018-01-21T12:47:14.670Z,5.07
2018-01-21T12:48:19.613Z,4.00
2018-01-21T12:49:23.883Z,2.20
2018-01-21T12:50:28.089Z,3.13
2018-01-21T12:51:32.344Z,3.50
2018-01-21T12:52:36.655Z,1.83
2018-01-21T12:53:40.953Z,3.30
2018-01-21T12:54:46.297Z,5.33
2018-01-21T12:55:51.438Z,3.63
2018-01-21T12:56:55.670Z,8.67
2018-01-21T12:57:59.859Z,8.07
2018-01-21T12:59:04.040Z,2.37
2018-01-21T13:00:09.395Z,6.62
2018-01-21T13:01:14.332Z,4.30
2018-01-21T13:02:18.545Z,6.82
2018-01-21T13:03:22.732Z,8.63
2018-01-21T13:04:27.710Z,3.40
2018-01-21T13:05:31.936Z,7.47
2018-01-21T13:06:36.095Z,5.80
2018-01-21T13:07:41.074Z,3.00
2018-01-21T13:08:45.289Z,2.00
2018-01-21T13:09:49.497Z,2.93
2018-01-21T13:10:54.020Z,2.80
2018-01-21T13:11:58.220Z,2.67
2018-01-21T13:13:02.421Z,3.33
2018-01-21T13:14:06.635Z,3.83
2018-01-21T13:15:10.838Z,5.40
2018-01-21T13:16:15.127Z,4.03
2018-01-21T13:17:19.336Z,3.70
2018-01-21T13:18:23.503Z,2.40
2018-01-21T13:19:27.692Z,5.30
2018-01-21T13:20:31.893Z,7.40
2018-01-21T13:21:36.100Z,6.07
2018-01-21T13:22:40.267Z,6.17
2018-01-21T13:23:45.208Z,6.60
2018-01-21T13:24:50.179Z,4.27
2018-01-21T13:25:54.347Z,9.40
2018-01-21T13:26:59.284Z,4.57
2018-01-21T13:28:03.579Z,2.40
2018-01-21T13:29:08.557Z,6.53
2018-01-21T13:30:13.134Z,3.83
2018-01-21T13:31:18.166Z,2.20
2018-01-21T13:32:22.485Z,3.93
2018-01-21T13:33:26.681Z,5.23
2018-01-21T13:34:31.658Z,4.40
2018-01-21T13:35:35.856Z,4.20
2018-01-21T13:36:40.020Z,2.53
2018-01-21T13:37:44.994Z,3.77
2018-01-21T13:38:49.189Z,2.27
2018-01-21T13:39:53.393Z,2.90
2018-01-21T13:40:57.701Z,4.57
2018-01-21T13:42:02.670Z,1.43
2018-01-21T13:43:06.857Z,8.90
2018-01-21T13:44:12.114Z,3.00
2018-01-21T13:45:16.329Z,7.87
2018-01-21T13:46:20.548Z,3.43
2018-01-21T13:47:24.724Z,6.63
2018-01-21T13:48:28.898Z,4.70
2018-01-21T13:49:33.835Z,12.17
2018-01-21T13:50:38.795Z,3.87
2018-01-21T13:51:43.086Z,9.23
2018-01-21T13:52:48.115Z,5.70
2018-01-21T13:53:52.289Z,6.73
2018-01-21T13:54:56.493Z,5.40
2018-01-21T13:56:00.695Z,7.70